createdAt,value
2019-01-04T00:00:45.322Z,2.50
2019-01-04T00:03:14.321Z,2.50
2019-01-04T00:05:43.280Z,2.40
2019-01-04T00:08:12.311Z,2.50
2019-01-04T00:10:41.232Z,2.60
2019-01-04T00:13:10.165Z,2.60
2019-01-04T00:15:39.181Z,2.70
2019-01-04T00:18:08.049Z,2.70
2019-01-04T00:20:37.196Z,2.80
2019-01-04T00:23:08.875Z,2.80
2019-01-04T00:25:37.882Z,2.70
2019-01-04T00:28:06.796Z,2.70
2019-01-04T00:30:35.771Z,2.80
2019-01-04T00:33:04.750Z,2.80
2019-01-04T00:35:35.025Z,2.80
2019-01-04T00:38:04.127Z,2.80
2019-01-04T00:40:33.159Z,2.90
2019-01-04T00:43:08.208Z,3.00
2019-01-04T00:45:37.304Z,2.90
2019-01-04T00:48:06.566Z,3.00
2019-01-04T00:50:35.699Z,3.10
2019-01-04T00:53:04.682Z,3.00
2019-01-04T00:55:43.933Z,3.10
2019-01-04T00:58:43.259Z,3.20
2019-01-04T01:01:50.056Z,3.10
2019-01-04T01:04:51.122Z,3.20
2019-01-04T01:07:57.798Z,3.10
2019-01-04T01:11:07.690Z,3.10
2019-01-04T01:14:05.458Z,3.20
2019-01-04T01:16:53.368Z,3.10
2019-01-04T01:20:14.023Z,3.20
2019-01-04T01:23:25.965Z,3.30
2019-01-04T01:26:45.271Z,3.50
2019-01-04T01:29:52.246Z,3.50
2019-01-04T01:33:07.268Z,3.30
2019-01-04T01:35:56.599Z,3.30
2019-01-04T01:38:54.858Z,3.30
2019-01-04T01:41:53.753Z,3.40
2019-01-04T01:45:15.659Z,3.50
2019-01-04T01:47:49.396Z,3.50
2019-01-04T01:50:59.540Z,3.30
2019-01-04T01:53:41.170Z,3.10
2019-01-04T01:56:10.076Z,3.10
2019-01-04T01:58:38.946Z,3.00
2019-01-04T02:01:07.933Z,3.00
2019-01-04T02:03:36.762Z,2.90
2019-01-04T02:06:06.008Z,2.80
2019-01-04T02:08:34.892Z,2.80
2019-01-04T02:11:04.002Z,3.00
2019-01-04T02:13:32.801Z,2.90
2019-01-04T02:16:01.579Z,3.10
2019-01-04T02:18:30.439Z,3.20
2019-01-04T02:20:59.291Z,3.20
2019-01-04T02:23:28.155Z,2.90
2019-01-04T02:25:56.973Z,3.00
2019-01-04T02:28:25.841Z,2.90
2019-01-04T02:30:54.841Z,2.90
2019-01-04T02:33:23.655Z,3.00
2019-01-04T02:35:52.611Z,2.90
2019-01-04T02:38:21.507Z,2.90
2019-01-04T02:40:50.340Z,3.00
2019-01-04T02:43:19.104Z,2.80
2019-01-04T02:45:47.899Z,2.80
2019-01-04T02:48:16.788Z,2.70
2019-01-04T02:50:45.662Z,2.80
2019-01-04T02:53:14.532Z,2.80
2019-01-04T02:55:43.456Z,2.70
2019-01-04T02:58:12.336Z,2.70
2019-01-04T03:00:41.318Z,2.80
2019-01-04T03:03:10.219Z,2.70
2019-01-04T03:05:39.096Z,2.60
2019-01-04T03:08:07.940Z,2.50
2019-01-04T03:10:36.769Z,2.50
2019-01-04T03:13:05.658Z,2.50
2019-01-04T03:15:34.469Z,2.50
2019-01-04T03:18:03.438Z,2.50
2019-01-04T03:20:32.422Z,2.50
2019-01-04T03:23:01.234Z,2.60
2019-01-04T03:25:30.071Z,2.50
2019-01-04T03:27:58.871Z,2.50
2019-01-04T03:30:27.679Z,2.50
2019-01-04T03:32:56.503Z,2.60
2019-01-04T03:35:25.409Z,2.50
2019-01-04T03:37:54.238Z,2.50
2019-01-04T03:40:25.189Z,2.50
2019-01-04T03:42:54.151Z,2.60
2019-01-04T03:45:22.935Z,2.80
2019-01-04T03:47:51.723Z,2.80
2019-01-04T03:50:20.686Z,2.80
2019-01-04T03:52:49.546Z,2.90
2019-01-04T03:55:18.401Z,3.00
2019-01-04T03:57:47.271Z,2.90
2019-01-04T04:00:16.068Z,2.60
2019-01-04T04:02:44.990Z,2.80
2019-01-04T04:05:13.885Z,2.80
2019-01-04T04:07:42.713Z,2.60
2019-01-04T04:10:11.561Z,2.60
2019-01-04T04:12:40.353Z,2.20
2019-01-04T04:15:09.482Z,2.30
2019-01-04T04:17:38.585Z,2.40
2019-01-04T04:20:07.721Z,2.50
2019-01-04T04:22:36.600Z,2.50
2019-01-04T04:25:05.567Z,2.70
2019-01-04T04:27:34.530Z,2.70
2019-01-04T04:30:03.515Z,2.70
2019-01-04T04:32:32.613Z,2.70
2019-01-04T04:35:01.886Z,2.90
2019-01-04T04:37:30.649Z,2.80
2019-01-04T04:39:59.556Z,2.80
2019-01-04T04:42:28.624Z,2.70
2019-01-04T04:44:57.444Z,2.50
2019-01-04T04:47:45.549Z,2.30
2019-01-04T04:50:14.862Z,2.50
2019-01-04T04:52:43.668Z,2.40
2019-01-04T04:55:12.517Z,2.50
2019-01-04T04:57:41.413Z,2.40
2019-01-04T05:00:10.469Z,2.30
2019-01-04T05:02:39.498Z,2.20
2019-01-04T05:05:08.532Z,2.30
2019-01-04T05:07:37.494Z,2.40
2019-01-04T05:10:06.488Z,2.30
2019-01-04T05:12:35.303Z,2.40
2019-01-04T05:15:04.223Z,2.40
2019-01-04T05:17:33.108Z,2.30
2019-01-04T05:20:01.989Z,2.10
2019-01-04T05:22:30.812Z,2.10
2019-01-04T05:24:59.632Z,2.30
2019-01-04T05:27:28.428Z,2.30
2019-01-04T05:29:57.279Z,2.50
2019-01-04T05:32:26.076Z,2.30
2019-01-04T05:34:54.929Z,2.20
2019-01-04T05:37:23.808Z,2.10
2019-01-04T05:39:52.640Z,2.10
2019-01-04T05:42:21.567Z,2.10
2019-01-04T05:44:50.400Z,2.20
2019-01-04T05:47:19.339Z,2.20
2019-01-04T05:49:48.195Z,2.30
2019-01-04T05:52:17.004Z,2.20
2019-01-04T05:55:05.160Z,2.30
2019-01-04T05:57:33.996Z,2.10
2019-01-04T06:00:03.423Z,2.30
2019-01-04T06:02:32.206Z,2.30
2019-01-04T06:05:00.998Z,2.40
2019-01-04T06:07:29.851Z,2.30
2019-01-04T06:09:58.661Z,2.40
2019-01-04T06:12:27.533Z,2.40
2019-01-04T06:14:56.378Z,2.40
2019-01-04T06:17:25.755Z,2.50
2019-01-04T06:19:54.587Z,2.50
2019-01-04T06:22:23.365Z,2.30
2019-01-04T06:24:52.223Z,2.30
2019-01-04T06:27:21.064Z,2.30
2019-01-04T06:29:49.844Z,2.20
2019-01-04T06:32:18.834Z,2.30
2019-01-04T06:34:47.664Z,2.20
2019-01-04T06:37:16.595Z,2.40
2019-01-04T06:39:45.449Z,2.40
2019-01-04T06:42:14.258Z,2.50
2019-01-04T06:44:43.071Z,2.50
2019-01-04T06:47:17.066Z,2.60
2019-01-04T06:49:46.683Z,2.60
2019-01-04T06:52:15.626Z,2.40
2019-01-04T06:55:34.291Z,2.50
2019-01-04T06:58:03.383Z,2.50
2019-01-04T07:00:32.205Z,2.60
2019-01-04T07:03:01.133Z,2.70
2019-01-04T07:05:30.173Z,2.40
2019-01-04T07:07:59.283Z,2.50
2019-01-04T07:10:28.122Z,2.50
2019-01-04T07:12:56.932Z,2.40
2019-01-04T07:15:25.789Z,2.40
2019-01-04T07:17:54.629Z,2.30
2019-01-04T07:20:23.409Z,2.60
2019-01-04T07:22:52.248Z,2.70
2019-01-04T07:25:21.164Z,2.70
2019-01-04T07:27:50.114Z,2.80
2019-01-04T07:30:18.979Z,2.80
2019-01-04T07:32:47.804Z,2.60
2019-01-04T07:35:16.718Z,2.40
2019-01-04T07:37:45.551Z,2.50
2019-01-04T07:40:14.525Z,2.50
2019-01-04T07:42:43.473Z,2.40
2019-01-04T07:45:12.390Z,2.40
2019-01-04T07:47:41.272Z,2.30
2019-01-04T07:50:10.398Z,2.20
2019-01-04T07:52:39.249Z,2.20
2019-01-04T07:55:10.491Z,2.20
2019-01-04T07:57:41.602Z,2.30
2019-01-04T08:00:13.074Z,2.30
2019-01-04T08:02:46.882Z,2.30
2019-01-04T08:05:20.510Z,2.40
2019-01-04T08:07:49.459Z,2.20
2019-01-04T08:10:18.317Z,2.20
2019-01-04T08:12:47.261Z,2.40
2019-01-04T08:15:16.140Z,2.50
2019-01-04T08:17:45.157Z,2.50
2019-01-04T08:20:13.967Z,2.60
2019-01-04T08:22:43.308Z,2.80
2019-01-04T08:25:12.411Z,2.60
2019-01-04T08:27:41.360Z,2.70
2019-01-04T08:30:12.715Z,2.80
2019-01-04T08:32:41.598Z,2.90
2019-01-04T08:37:52.591Z,2.70
2019-01-04T08:40:21.480Z,2.60
2019-01-04T08:42:50.315Z,2.60
2019-01-04T08:45:19.196Z,2.80
2019-01-04T08:47:48.063Z,2.60
2019-01-04T08:50:17.544Z,2.60
2019-01-04T08:52:46.662Z,2.90
2019-01-04T08:55:21.914Z,3.00
2019-01-04T08:57:50.763Z,3.20
2019-01-04T09:00:19.593Z,3.10
2019-01-04T09:02:48.417Z,3.00
2019-01-04T09:05:17.252Z,3.10
2019-01-04T09:07:46.137Z,3.00
2019-01-04T09:10:14.978Z,3.10
2019-01-04T09:12:43.863Z,3.00
2019-01-04T09:15:12.961Z,2.90
2019-01-04T09:17:41.872Z,2.90
2019-01-04T09:20:11.723Z,3.10
2019-01-04T09:22:41.918Z,3.20
2019-01-04T09:25:11.498Z,3.20
2019-01-04T09:27:40.454Z,3.20
2019-01-04T09:30:12.741Z,3.10
2019-01-04T09:32:41.627Z,3.00
2019-01-04T09:35:11.027Z,3.10
2019-01-04T09:37:40.597Z,3.00
2019-01-04T09:40:13.031Z,3.00
2019-01-04T09:42:47.940Z,3.00
2019-01-04T09:45:16.941Z,2.90
2019-01-04T09:47:45.842Z,3.00
2019-01-04T09:50:14.628Z,3.20
2019-01-04T09:52:43.471Z,3.30
2019-01-04T09:55:12.372Z,3.20
2019-01-04T09:57:41.504Z,3.40
2019-01-04T10:00:13.895Z,3.20
2019-01-04T10:02:42.748Z,3.20
2019-01-04T10:05:12.163Z,3.10
2019-01-04T10:07:41.114Z,3.10
2019-01-04T10:10:11.566Z,3.30
2019-01-04T10:12:40.739Z,3.20
2019-01-04T10:15:12.605Z,3.40
2019-01-04T10:17:41.517Z,3.20
2019-01-04T10:20:10.634Z,3.10
2019-01-04T10:22:40.041Z,3.10
2019-01-04T10:25:09.125Z,3.20
2019-01-04T10:27:38.184Z,3.40
2019-01-04T10:30:08.114Z,3.50
2019-01-04T10:32:37.138Z,3.50
2019-01-04T10:35:10.438Z,3.40
2019-01-04T10:37:37.030Z,3.40
2019-01-04T10:40:11.054Z,3.50
2019-01-04T10:42:36.598Z,3.30
2019-01-04T10:45:06.561Z,3.20
2019-01-04T10:47:35.501Z,3.20
2019-01-04T10:50:04.691Z,3.40
2019-01-04T10:52:33.714Z,3.50
2019-01-04T10:55:02.589Z,3.70
2019-01-04T10:57:31.485Z,3.70
2019-01-04T11:00:00.458Z,3.70
2019-01-04T11:02:29.391Z,3.60
2019-01-04T11:04:58.361Z,3.50
2019-01-04T11:07:27.229Z,3.40
2019-01-04T11:09:56.119Z,3.50
2019-01-04T11:12:24.931Z,3.50
2019-01-04T11:14:53.738Z,3.60
2019-01-04T11:17:22.523Z,3.60
2019-01-04T11:19:51.601Z,3.70
2019-01-04T11:22:51.775Z,3.70
2019-01-04T11:26:00.352Z,3.60
2019-01-04T11:28:37.859Z,3.70
2019-01-04T11:31:14.122Z,3.60
2019-01-04T11:34:21.521Z,3.70
2019-01-04T11:37:14.350Z,3.80
2019-01-04T11:40:32.036Z,3.80
2019-01-04T11:43:37.895Z,3.80
2019-01-04T11:46:39.818Z,3.80
2019-01-04T11:49:17.398Z,3.90
2019-01-04T11:52:00.659Z,3.80
2019-01-04T11:54:30.621Z,3.90
2019-01-04T11:56:59.527Z,4.00
2019-01-04T11:59:28.471Z,4.00
2019-01-04T12:01:57.433Z,4.00
2019-01-04T12:04:26.279Z,3.80
2019-01-04T12:06:55.198Z,3.80
2019-01-04T12:09:24.096Z,3.90
2019-01-04T12:11:53.353Z,4.00
2019-01-04T12:14:22.332Z,3.90
2019-01-04T12:16:51.919Z,3.50
2019-01-04T12:19:20.892Z,3.80
2019-01-04T12:21:49.707Z,3.70
2019-01-04T12:24:18.778Z,3.80
2019-01-04T12:26:47.706Z,3.90
2019-01-04T12:29:16.587Z,3.90
2019-01-04T12:31:45.404Z,4.00
2019-01-04T12:34:16.743Z,4.00
2019-01-04T12:36:45.001Z,4.10
2019-01-04T12:39:13.875Z,4.10
2019-01-04T12:41:42.810Z,4.00
2019-01-04T12:44:11.671Z,4.00
2019-01-04T12:46:40.706Z,4.10
2019-01-04T12:49:09.592Z,4.10
2019-01-04T12:51:38.627Z,3.80
2019-01-04T12:54:07.506Z,3.80
2019-01-04T12:56:36.634Z,3.90
2019-01-04T12:59:05.801Z,4.10
2019-01-04T13:01:34.613Z,4.20
2019-01-04T13:04:03.618Z,4.20
2019-01-04T13:06:32.718Z,4.20
2019-01-04T13:09:01.711Z,4.10
2019-01-04T13:11:30.566Z,4.00
2019-01-04T13:13:59.783Z,4.00
2019-01-04T13:16:28.657Z,3.90
2019-01-04T13:18:57.611Z,4.00
2019-01-04T13:21:26.606Z,4.00
2019-01-04T13:23:55.515Z,4.00
2019-01-04T13:26:24.368Z,4.20
2019-01-04T13:28:53.264Z,4.20
2019-01-04T13:31:22.133Z,4.10
2019-01-04T13:33:50.956Z,4.10
2019-01-04T13:36:19.855Z,4.20
2019-01-04T13:38:49.173Z,4.20
2019-01-04T13:41:18.047Z,4.20
2019-01-04T13:43:47.010Z,3.90
2019-01-04T13:46:15.835Z,4.00
2019-01-04T13:48:44.651Z,4.10
2019-01-04T13:51:13.704Z,4.10
2019-01-04T13:53:42.681Z,4.10
2019-01-04T13:56:11.709Z,4.10
2019-01-04T13:58:40.861Z,4.10
2019-01-04T14:01:10.059Z,4.10
2019-01-04T14:03:39.067Z,4.00
2019-01-04T14:06:11.099Z,4.20
2019-01-04T14:08:40.060Z,4.20
2019-01-04T14:11:09.213Z,4.00
2019-01-04T14:13:38.664Z,4.00
2019-01-04T14:16:07.849Z,4.10
2019-01-04T14:18:37.168Z,4.20
2019-01-04T14:21:06.608Z,4.00
2019-01-04T14:23:42.540Z,4.10
2019-01-04T14:26:09.162Z,4.10
2019-01-04T14:28:38.443Z,4.20
2019-01-04T14:31:07.471Z,4.20
2019-01-04T14:33:36.899Z,4.20
2019-01-04T14:36:07.002Z,4.30
2019-01-04T14:38:36.027Z,4.30
2019-01-04T14:41:05.061Z,4.30
2019-01-04T14:43:34.153Z,4.30
2019-01-04T14:46:03.187Z,4.30
2019-01-04T14:48:32.084Z,4.40
2019-01-04T14:51:01.198Z,4.30
2019-01-04T14:53:30.212Z,4.40
2019-01-04T14:55:59.093Z,4.20
2019-01-04T14:58:28.056Z,4.40
2019-01-04T15:00:57.169Z,4.50
2019-01-04T15:03:26.090Z,4.40
2019-01-04T15:05:54.912Z,4.40
2019-01-04T15:08:23.981Z,4.50
2019-01-04T15:10:52.827Z,4.50
2019-01-04T15:13:21.903Z,4.30
2019-01-04T15:15:50.748Z,4.50
2019-01-04T15:18:19.842Z,4.70
2019-01-04T15:20:48.877Z,4.60
2019-01-04T15:23:18.232Z,4.70
2019-01-04T15:25:47.249Z,4.80
2019-01-04T15:28:16.242Z,4.90
2019-01-04T15:30:45.209Z,4.80
2019-01-04T15:33:17.130Z,4.70
2019-01-04T15:35:46.251Z,4.60
2019-01-04T15:38:15.113Z,4.50
2019-01-04T15:40:44.067Z,4.70
2019-01-04T15:43:12.861Z,4.70
2019-01-04T15:45:41.854Z,4.80
2019-01-04T15:48:10.750Z,4.80
2019-01-04T15:50:39.637Z,5.00
2019-01-04T15:53:08.564Z,5.00
2019-01-04T15:55:37.457Z,5.00
2019-01-04T15:58:06.391Z,5.00
2019-01-04T16:00:35.230Z,4.90
2019-01-04T16:03:04.182Z,4.90
2019-01-04T16:05:33.103Z,4.80
2019-01-04T16:08:02.050Z,4.80
2019-01-04T16:10:31.101Z,4.90
2019-01-04T16:13:00.149Z,4.90
2019-01-04T16:15:28.981Z,5.10
2019-01-04T16:17:57.765Z,4.70
2019-01-04T16:20:26.955Z,4.80
2019-01-04T16:22:55.871Z,4.90
2019-01-04T16:25:24.861Z,4.90
2019-01-04T16:27:53.746Z,4.90
2019-01-04T16:30:22.690Z,4.90
2019-01-04T16:32:51.642Z,4.90
2019-01-04T16:35:20.612Z,5.10
2019-01-04T16:37:49.505Z,5.00
2019-01-04T16:40:18.578Z,4.90
2019-01-04T16:42:47.584Z,5.00
2019-01-04T16:45:16.368Z,5.00
2019-01-04T16:47:45.549Z,5.20
2019-01-04T16:50:14.522Z,5.20
2019-01-04T16:52:43.415Z,5.20
2019-01-04T16:55:12.444Z,5.20
2019-01-04T16:57:41.298Z,5.10
2019-01-04T17:00:11.323Z,5.20
2019-01-04T17:02:40.307Z,5.00
2019-01-04T17:05:09.215Z,5.10
2019-01-04T17:07:38.545Z,5.10
2019-01-04T17:10:07.545Z,5.20
2019-01-04T17:12:36.426Z,5.20
2019-01-04T17:15:05.458Z,5.20
2019-01-04T17:17:34.358Z,5.30
2019-01-04T17:20:03.330Z,5.30
2019-01-04T17:22:32.179Z,5.40
2019-01-04T17:25:01.329Z,5.40
2019-01-04T17:27:30.260Z,5.40
2019-01-04T17:29:59.164Z,5.30
2019-01-04T17:32:28.109Z,5.30
2019-01-04T17:34:59.623Z,5.40
2019-01-04T17:37:28.661Z,5.50
2019-01-04T17:39:57.523Z,5.40
2019-01-04T17:42:27.086Z,5.40
2019-01-04T17:44:56.159Z,5.40
2019-01-04T17:47:25.084Z,5.40
2019-01-04T17:49:54.062Z,5.40
2019-01-04T17:52:22.990Z,5.20
2019-01-04T17:54:51.921Z,5.30
2019-01-04T17:57:20.861Z,5.40
2019-01-04T17:59:49.667Z,5.50
2019-01-04T18:02:18.773Z,5.50
2019-01-04T18:04:47.613Z,5.40
2019-01-04T18:07:16.657Z,5.50
2019-01-04T18:09:45.700Z,5.50
2019-01-04T18:12:14.761Z,5.50
2019-01-04T18:14:43.732Z,5.50
2019-01-04T18:17:12.549Z,5.50
2019-01-04T18:19:41.474Z,5.50
2019-01-04T18:22:10.461Z,5.30
2019-01-04T18:24:39.382Z,5.40
2019-01-04T18:27:08.207Z,5.40
2019-01-04T18:29:37.361Z,5.40
2019-01-04T18:32:06.404Z,5.40
2019-01-04T18:34:35.227Z,5.40
2019-01-04T18:37:04.130Z,5.40
2019-01-04T18:39:33.087Z,5.40
2019-01-04T18:42:02.093Z,5.40
2019-01-04T18:44:30.899Z,5.50
2019-01-04T18:46:59.734Z,5.50
2019-01-04T18:49:28.628Z,5.40
2019-01-04T18:51:57.455Z,5.50
2019-01-04T18:54:26.394Z,5.50
2019-01-04T18:56:55.507Z,5.60
2019-01-04T18:59:24.448Z,5.50
2019-01-04T19:01:54.972Z,5.50
2019-01-04T19:04:23.968Z,5.50
2019-01-04T19:06:54.703Z,5.50
2019-01-04T19:09:25.881Z,5.60
2019-01-04T19:11:54.871Z,5.80
2019-01-04T19:14:23.874Z,5.60
2019-01-04T19:16:52.679Z,5.60
2019-01-04T19:19:21.588Z,5.60
2019-01-04T19:21:50.438Z,5.60
2019-01-04T19:24:19.387Z,5.60
2019-01-04T19:26:48.270Z,5.60
2019-01-04T19:29:17.237Z,5.40
2019-01-04T19:31:46.229Z,5.40
2019-01-04T19:34:15.232Z,5.50
2019-01-04T19:36:44.251Z,5.50
2019-01-04T19:39:14.928Z,5.40
2019-01-04T19:41:43.912Z,5.40
2019-01-04T19:44:12.969Z,5.50
2019-01-04T19:46:42.046Z,5.50
2019-01-04T19:49:11.121Z,5.50
2019-01-04T19:51:40.061Z,5.60
2019-01-04T19:54:09.064Z,5.60
2019-01-04T19:56:37.898Z,5.60
2019-01-04T19:59:06.861Z,5.50
2019-01-04T20:01:35.827Z,5.30
2019-01-04T20:04:04.791Z,5.30
2019-01-04T20:07:41.467Z,5.50
2019-01-04T20:11:08.515Z,5.40
2019-01-04T20:14:42.742Z,5.20
2019-01-04T20:17:46.232Z,5.30
2019-01-04T20:20:33.148Z,5.30
2019-01-04T20:23:19.790Z,5.40
2019-01-04T20:26:06.674Z,5.50
2019-01-04T20:28:57.832Z,5.70
2019-01-04T20:31:52.331Z,5.40
2019-01-04T20:34:38.532Z,5.50
2019-01-04T20:37:25.565Z,5.40
2019-01-04T20:40:12.409Z,5.40
2019-01-04T20:43:03.847Z,5.50
2019-01-04T20:46:03.799Z,5.50
2019-01-04T20:48:50.427Z,5.70
2019-01-04T20:51:37.261Z,5.80
2019-01-04T20:54:24.796Z,5.80
2019-01-04T20:57:13.869Z,5.80
2019-01-04T21:00:00.806Z,5.70
2019-01-04T21:02:54.562Z,5.80
2019-01-04T21:05:51.426Z,5.80
2019-01-04T21:08:34.454Z,5.90
2019-01-04T21:11:22.511Z,5.80
2019-01-04T21:14:09.224Z,5.90
2019-01-04T21:16:56.096Z,6.00
2019-01-04T21:20:02.480Z,6.00
2019-01-04T21:22:52.780Z,6.10
2019-01-04T21:25:44.238Z,6.10
2019-01-04T21:28:31.180Z,6.20
2019-01-04T21:31:17.753Z,6.00
2019-01-04T21:34:05.247Z,5.90
2019-01-04T21:36:58.282Z,6.00
2019-01-04T21:39:46.317Z,6.00
2019-01-04T21:42:28.055Z,6.10
2019-01-04T21:45:19.245Z,5.90
2019-01-04T21:48:06.020Z,6.10
2019-01-04T21:50:56.057Z,6.10
2019-01-04T21:53:53.374Z,6.20
2019-01-04T21:56:49.977Z,6.20
2019-01-04T21:59:32.050Z,6.20
2019-01-04T22:02:28.948Z,6.20
2019-01-04T22:05:28.971Z,6.20
2019-01-04T22:08:25.752Z,6.10
2019-01-04T22:11:12.297Z,6.10
2019-01-04T22:13:58.888Z,6.10
2019-01-04T22:16:45.597Z,6.20
2019-01-04T22:19:32.305Z,6.20
2019-01-04T22:22:27.626Z,6.10
2019-01-04T22:25:22.067Z,6.10
2019-01-04T22:28:21.957Z,6.10
2019-01-04T22:31:01.109Z,6.10
2019-01-04T22:33:47.993Z,6.20
2019-01-04T22:36:36.070Z,6.20
2019-01-04T22:39:21.684Z,6.10
2019-01-04T22:42:27.818Z,6.00
2019-01-04T22:45:14.361Z,6.10
2019-01-04T22:48:17.457Z,6.10
2019-01-04T22:51:03.856Z,6.00
2019-01-04T22:53:52.135Z,6.10
2019-01-04T22:56:58.161Z,6.10
2019-01-04T22:59:54.982Z,6.00
2019-01-04T23:02:48.773Z,6.10
2019-01-04T23:05:36.892Z,6.20
2019-01-04T23:08:24.957Z,6.20
2019-01-04T23:11:31.225Z,6.20
2019-01-04T23:14:22.465Z,6.10
2019-01-04T23:17:10.381Z,6.10
2019-01-04T23:20:01.081Z,6.10
2019-01-04T23:23:01.574Z,6.10
2019-01-04T23:25:49.612Z,6.30
2019-01-04T23:28:39.063Z,6.30
2019-01-04T23:31:25.654Z,6.20
2019-01-04T23:34:19.521Z,6.10
2019-01-04T23:37:21.972Z,6.10
2019-01-04T23:40:28.112Z,6.30
2019-01-04T23:43:31.058Z,6.20
2019-01-04T23:46:17.961Z,6.20
2019-01-04T23:49:05.252Z,6.20
2019-01-04T23:52:02.909Z,6.20
2019-01-04T23:54:59.742Z,6.20
2019-01-04T23:58:05.570Z,6.10
